VOZ951 YSSY-YBBN
Flight info
| Callsign | VOZ951 |
|---|---|
| Flight time | 1h 17m |
| Altitude | 37000 |
| Route | TESAT H252 OLSEM Y193 BANDA H252 BN |
| Aircraft | B738/M-SDE3FGIRWZH/LB1 |
Departure
| Time | 2026-05-07 07:18 |
|---|---|
| Airport | Sydney Kingsford Smith International Airport (YSSY) |
Arrival
| Time | 2026-05-07 08:35 |
|---|---|
| Airport | Brisbane International Airport (YBBN) |
| Time | Latitude | Longitude | Altitude | Speed | Heading |
|---|---|---|---|---|---|
| 2026-05-07 06:30 | -33.93636 | 151.17989 | 29 ft | 0 kts | 280° |
| 2026-05-07 07:04 | -33.93638 | 151.17999 | 29 ft | 3 kts | 280° |
| 2026-05-07 07:04 | -33.93640 | 151.18014 | 29 ft | 3 kts | 277° |
| 2026-05-07 07:04 | -33.93641 | 151.18038 | 29 ft | 3 kts | 251° |
| 2026-05-07 07:04 | -33.93634 | 151.18052 | 29 ft | 2 kts | 182° |
| 2026-05-07 07:05 | -33.93647 | 151.18051 | 29 ft | 3 kts | 181° |
| 2026-05-07 07:05 | -33.93666 | 151.18051 | 29 ft | 0 kts | 180° |
| 2026-05-07 07:09 | -33.93667 | 151.18051 | 29 ft | 1 kts | 180° |
| 2026-05-07 07:09 | -33.93684 | 151.18053 | 29 ft | 4 kts | 170° |
| 2026-05-07 07:09 | -33.93728 | 151.18064 | 29 ft | 8 kts | 166° |
| 2026-05-07 07:10 | -33.93754 | 151.18134 | 29 ft | 13 kts | 78° |
| 2026-05-07 07:10 | -33.93726 | 151.18256 | 29 ft | 17 kts | 73° |
| 2026-05-07 07:10 | -33.93688 | 151.18416 | 29 ft | 22 kts | 74° |
| 2026-05-07 07:10 | -33.93643 | 151.18609 | 29 ft | 25 kts | 74° |
| 2026-05-07 07:11 | -33.93604 | 151.18772 | 29 ft | 6 kts | 73° |
| 2026-05-07 07:11 | -33.93591 | 151.18825 | 7 ft | 7 kts | 79° |
| 2026-05-07 07:11 | -33.93598 | 151.18883 | 29 ft | 7 kts | 113° |
| 2026-05-07 07:11 | -33.93609 | 151.18907 | 28 ft | 0 kts | 127° |
| 2026-05-07 07:14 | -33.93624 | 151.18928 | 28 ft | 5 kts | 139° |
| 2026-05-07 07:14 | -33.93658 | 151.18946 | 27 ft | 0 kts | 163° |
| 2026-05-07 07:16 | -33.93672 | 151.18950 | 26 ft | 5 kts | 165° |
| 2026-05-07 07:16 | -33.93731 | 151.18966 | 24 ft | 11 kts | 181° |
| 2026-05-07 07:16 | -33.93771 | 151.18910 | 25 ft | 1 kts | 255° |
| 2026-05-07 07:17 | -33.93794 | 151.18809 | 24 ft | 39 kts | 255° |
| 2026-05-07 07:17 | -33.93934 | 151.18220 | 28 ft | 105 kts | 254° |
| 2026-05-07 07:17 | -33.94184 | 151.17157 | 115 ft | 152 kts | 254° |
| 2026-05-07 07:18 | -33.94481 | 151.15947 | 1018 ft | 143 kts | 253° |
| 2026-05-07 07:18 | -33.94725 | 151.14871 | 1993 ft | 132 kts | 254° |
| 2026-05-07 07:18 | -33.94965 | 151.13690 | 2332 ft | 160 kts | 255° |
| 2026-05-07 07:18 | -33.95109 | 151.12329 | 3022 ft | 167 kts | 276° |
| 2026-05-07 07:19 | -33.94472 | 151.11088 | 3733 ft | 190 kts | 301° |
| 2026-05-07 07:19 | -33.93316 | 151.10047 | 3922 ft | 232 kts | 331° |
| 2026-05-07 07:19 | -33.91607 | 151.09847 | 4289 ft | 263 kts | 5° |
| 2026-05-07 07:19 | -33.89908 | 151.10777 | 4814 ft | 280 kts | 40° |
| 2026-05-07 07:20 | -33.88663 | 151.12681 | 5198 ft | 298 kts | 61° |
| 2026-05-07 07:20 | -33.87638 | 151.14872 | 5914 ft | 303 kts | 64° |
| 2026-05-07 07:20 | -33.86615 | 151.17098 | 6765 ft | 304 kts | 64° |
| 2026-05-07 07:20 | -33.85577 | 151.19316 | 7548 ft | 306 kts | 63° |
| 2026-05-07 07:21 | -33.84504 | 151.21555 | 8258 ft | 311 kts | 63° |
| 2026-05-07 07:21 | -33.83399 | 151.23813 | 9023 ft | 315 kts | 62° |
| 2026-05-07 07:21 | -33.82280 | 151.26068 | 9819 ft | 316 kts | 62° |
| 2026-05-07 07:21 | -33.81133 | 151.28361 | 10404 ft | 326 kts | 62° |
| 2026-05-07 07:22 | -33.79920 | 151.30779 | 10581 ft | 349 kts | 62° |
| 2026-05-07 07:22 | -33.79071 | 151.32462 | 10750 ft | 361 kts | 61° |
| 2026-05-07 07:22 | -33.77290 | 151.35976 | 11452 ft | 373 kts | 60° |
| 2026-05-07 07:22 | -33.76418 | 151.37748 | 12022 ft | 371 kts | 62° |
| 2026-05-07 07:23 | -33.75118 | 151.40449 | 12685 ft | 377 kts | 61° |
| 2026-05-07 07:23 | -33.73789 | 151.43160 | 13526 ft | 378 kts | 60° |
| 2026-05-07 07:23 | -33.72421 | 151.45875 | 14224 ft | 382 kts | 59° |
| 2026-05-07 07:23 | -33.71007 | 151.48622 | 14733 ft | 391 kts | 58° |
| 2026-05-07 07:24 | -33.69553 | 151.51413 | 15370 ft | 397 kts | 58° |
| 2026-05-07 07:24 | -33.68080 | 151.54230 | 16084 ft | 400 kts | 57° |
| 2026-05-07 07:24 | -33.66592 | 151.57071 | 16765 ft | 404 kts | 57° |
| 2026-05-07 07:24 | -33.64909 | 151.59788 | 17410 ft | 408 kts | 46° |
| 2026-05-07 07:25 | -33.60490 | 151.64052 | 18735 ft | 409 kts | 29° |
| 2026-05-07 07:25 | -33.58096 | 151.65872 | 19469 ft | 408 kts | 29° |
| 2026-05-07 07:25 | -33.55691 | 151.67717 | 19985 ft | 414 kts | 29° |
| 2026-05-07 07:26 | -33.53262 | 151.69616 | 20362 ft | 422 kts | 28° |
| 2026-05-07 07:26 | -33.50776 | 151.71538 | 20839 ft | 425 kts | 24° |
| 2026-05-07 07:26 | -33.48131 | 151.73066 | 21438 ft | 419 kts | 13° |
| 2026-05-07 07:26 | -33.45357 | 151.74031 | 22055 ft | 414 kts | 6° |
| 2026-05-07 07:27 | -33.42549 | 151.74851 | 22607 ft | 417 kts | 6° |
| 2026-05-07 07:27 | -33.39717 | 151.75703 | 23112 ft | 422 kts | 7° |
| 2026-05-07 07:27 | -33.36862 | 151.76593 | 23618 ft | 426 kts | 7° |
| 2026-05-07 07:27 | -33.33988 | 151.77513 | 23999 ft | 429 kts | 7° |
| 2026-05-07 07:28 | -33.31099 | 151.78446 | 24437 ft | 431 kts | 6° |
| 2026-05-07 07:28 | -33.28198 | 151.79387 | 24853 ft | 434 kts | 6° |
| 2026-05-07 07:28 | -33.25276 | 151.80334 | 25267 ft | 436 kts | 6° |
| 2026-05-07 07:28 | -33.22340 | 151.81284 | 25661 ft | 439 kts | 6° |
| 2026-05-07 07:29 | -33.19382 | 151.82239 | 26065 ft | 441 kts | 6° |
| 2026-05-07 07:29 | -33.16410 | 151.83197 | 26433 ft | 444 kts | 6° |
| 2026-05-07 07:29 | -33.13417 | 151.84160 | 26805 ft | 447 kts | 6° |
| 2026-05-07 07:29 | -33.10410 | 151.85126 | 27120 ft | 449 kts | 5° |
| 2026-05-07 07:30 | -33.07388 | 151.86097 | 27514 ft | 450 kts | 5° |
| 2026-05-07 07:30 | -33.04357 | 151.87072 | 27865 ft | 453 kts | 5° |
| 2026-05-07 07:30 | -33.01306 | 151.88051 | 28212 ft | 455 kts | 5° |
| 2026-05-07 07:30 | -32.98240 | 151.89035 | 28559 ft | 457 kts | 5° |
| 2026-05-07 07:31 | -32.95161 | 151.90023 | 28903 ft | 459 kts | 5° |
| 2026-05-07 07:31 | -32.92070 | 151.91013 | 29223 ft | 462 kts | 5° |
| 2026-05-07 07:31 | -32.88958 | 151.92009 | 29478 ft | 462 kts | 5° |
| 2026-05-07 07:31 | -32.85874 | 151.93001 | 30111 ft | 458 kts | 5° |
| 2026-05-07 07:32 | -32.82811 | 151.93984 | 30543 ft | 455 kts | 4° |
| 2026-05-07 07:32 | -32.79762 | 151.94963 | 30986 ft | 452 kts | 3° |
| 2026-05-07 07:32 | -32.76725 | 151.95931 | 31248 ft | 454 kts | 3° |
| 2026-05-07 07:32 | -32.73664 | 151.96902 | 31462 ft | 456 kts | 3° |
| 2026-05-07 07:33 | -32.70599 | 151.97876 | 31769 ft | 456 kts | 3° |
| 2026-05-07 07:33 | -32.67539 | 151.98850 | 32125 ft | 455 kts | 2° |
| 2026-05-07 07:33 | -32.64485 | 151.99823 | 32468 ft | 454 kts | 2° |
| 2026-05-07 07:33 | -32.61432 | 152.00796 | 32758 ft | 455 kts | 2° |
| 2026-05-07 07:34 | -32.58377 | 152.01773 | 33039 ft | 455 kts | 2° |
| 2026-05-07 07:34 | -32.55319 | 152.02743 | 33342 ft | 455 kts | 1° |
| 2026-05-07 07:34 | -32.52263 | 152.03710 | 33671 ft | 454 kts | 1° |
| 2026-05-07 07:34 | -32.49210 | 152.04675 | 33946 ft | 454 kts | 1° |
| 2026-05-07 07:35 | -32.46158 | 152.05635 | 34195 ft | 454 kts | 1° |
| 2026-05-07 07:35 | -32.43127 | 152.06599 | 34625 ft | 447 kts | 1° |
| 2026-05-07 07:35 | -32.40147 | 152.07546 | 35043 ft | 442 kts | 1° |
| 2026-05-07 07:35 | -32.37165 | 152.08490 | 35168 ft | 445 kts | 1° |
| 2026-05-07 07:36 | -32.34158 | 152.09441 | 35248 ft | 449 kts | 1° |
| 2026-05-07 07:36 | -32.31130 | 152.10392 | 35449 ft | 450 kts | 1° |
| 2026-05-07 07:36 | -32.28107 | 152.11346 | 35732 ft | 449 kts | 1° |
| 2026-05-07 07:36 | -32.25089 | 152.12303 | 35972 ft | 449 kts | 1° |
| 2026-05-07 07:37 | -32.22074 | 152.13246 | 36129 ft | 447 kts | 1° |
| 2026-05-07 07:37 | -32.19093 | 152.14188 | 36593 ft | 441 kts | 1° |
| 2026-05-07 07:37 | -32.16125 | 152.15126 | 36762 ft | 443 kts | 1° |
| 2026-05-07 07:38 | -32.10122 | 152.17003 | 36961 ft | 448 kts | 1° |
| 2026-05-07 07:38 | -32.07107 | 152.17948 | 37080 ft | 450 kts | 1° |
| 2026-05-07 07:38 | -32.04074 | 152.18897 | 37074 ft | 451 kts | 1° |
| 2026-05-07 07:39 | -31.98021 | 152.20799 | 37074 ft | 446 kts | 1° |
| 2026-05-07 07:39 | -31.92106 | 152.22672 | 37066 ft | 436 kts | 1° |
| 2026-05-07 07:40 | -31.86236 | 152.24502 | 37073 ft | 437 kts | 0° |
| 2026-05-07 07:40 | -31.80357 | 152.26328 | 37097 ft | 437 kts | 0° |
| 2026-05-07 07:41 | -31.74469 | 152.28161 | 37080 ft | 437 kts | 0° |
| 2026-05-07 07:41 | -31.68596 | 152.29992 | 37081 ft | 436 kts | 0° |
| 2026-05-07 07:42 | -31.62729 | 152.31817 | 37080 ft | 436 kts | 0° |
| 2026-05-07 07:42 | -31.56865 | 152.33639 | 37072 ft | 436 kts | 0° |
| 2026-05-07 07:43 | -31.51026 | 152.35452 | 37067 ft | 433 kts | 0° |
| 2026-05-07 07:43 | -31.45261 | 152.37240 | 37069 ft | 430 kts | 360° |
| 2026-05-07 07:44 | -31.39486 | 152.39027 | 37065 ft | 429 kts | 360° |
| 2026-05-07 07:44 | -31.33731 | 152.40804 | 37086 ft | 426 kts | 360° |
| 2026-05-07 07:45 | -31.27977 | 152.42577 | 37084 ft | 423 kts | 359° |
| 2026-05-07 07:45 | -31.22291 | 152.44328 | 37053 ft | 422 kts | 359° |
| 2026-05-07 07:46 | -31.16631 | 152.46076 | 37063 ft | 418 kts | 360° |
| 2026-05-07 07:46 | -31.11018 | 152.47802 | 37094 ft | 418 kts | 359° |
| 2026-05-07 07:47 | -31.05345 | 152.49538 | 37086 ft | 425 kts | 0° |
| 2026-05-07 07:47 | -30.99616 | 152.51283 | 37074 ft | 427 kts | 0° |
| 2026-05-07 07:48 | -30.93855 | 152.53054 | 37089 ft | 429 kts | 0° |
| 2026-05-07 07:48 | -30.88116 | 152.54822 | 37070 ft | 422 kts | 360° |
| 2026-05-07 07:49 | -30.82467 | 152.56551 | 37061 ft | 418 kts | 359° |
| 2026-05-07 07:49 | -30.76839 | 152.58327 | 37054 ft | 423 kts | 2° |
| 2026-05-07 07:50 | -30.71180 | 152.60463 | 37052 ft | 431 kts | 3° |
| 2026-05-07 07:50 | -30.65433 | 152.62598 | 37093 ft | 437 kts | 2° |
| 2026-05-07 07:51 | -30.59666 | 152.64703 | 37041 ft | 429 kts | 2° |
| 2026-05-07 07:51 | -30.54005 | 152.66820 | 37063 ft | 427 kts | 2° |
| 2026-05-07 07:52 | -30.48317 | 152.68836 | 37063 ft | 428 kts | 2° |
| 2026-05-07 07:52 | -30.42601 | 152.70875 | 37061 ft | 431 kts | 2° |
| 2026-05-07 07:53 | -30.36881 | 152.72929 | 37070 ft | 428 kts | 2° |
| 2026-05-07 07:53 | -30.31205 | 152.74969 | 37058 ft | 426 kts | 2° |
| 2026-05-07 07:54 | -30.25556 | 152.77015 | 37052 ft | 424 kts | 2° |
| 2026-05-07 07:54 | -30.19937 | 152.79040 | 37046 ft | 423 kts | 2° |
| 2026-05-07 07:55 | -30.14320 | 152.81060 | 37003 ft | 423 kts | 2° |
| 2026-05-07 07:55 | -30.08715 | 152.83068 | 37068 ft | 422 kts | 1° |
| 2026-05-07 07:56 | -30.03100 | 152.85076 | 37058 ft | 423 kts | 1° |
| 2026-05-07 07:56 | -29.97470 | 152.87098 | 37050 ft | 425 kts | 1° |
| 2026-05-07 07:57 | -29.91806 | 152.89123 | 36997 ft | 427 kts | 1° |
| 2026-05-07 07:57 | -29.86122 | 152.91143 | 37020 ft | 428 kts | 1° |
| 2026-05-07 07:58 | -29.80416 | 152.93163 | 37036 ft | 430 kts | 1° |
| 2026-05-07 07:58 | -29.74684 | 152.95191 | 37031 ft | 431 kts | 1° |
| 2026-05-07 07:59 | -29.68938 | 152.97224 | 37027 ft | 433 kts | 1° |
| 2026-05-07 07:59 | -29.63186 | 152.99260 | 37023 ft | 432 kts | 1° |
| 2026-05-07 08:00 | -29.57432 | 153.01291 | 37020 ft | 433 kts | 1° |
| 2026-05-07 08:00 | -29.51679 | 153.03320 | 37029 ft | 433 kts | 1° |
| 2026-05-07 08:01 | -29.45923 | 153.05347 | 37028 ft | 433 kts | 1° |
| 2026-05-07 08:01 | -29.40174 | 153.07370 | 37023 ft | 431 kts | 1° |
| 2026-05-07 08:02 | -29.34440 | 153.09385 | 37042 ft | 431 kts | 1° |
| 2026-05-07 08:02 | -29.29673 | 153.11057 | 37033 ft | 431 kts | 1° |
| 2026-05-07 08:02 | -29.26798 | 153.12065 | 36866 ft | 434 kts | 1° |
| 2026-05-07 08:03 | -29.23919 | 153.13077 | 36596 ft | 430 kts | 1° |
| 2026-05-07 08:03 | -29.21081 | 153.14084 | 36196 ft | 425 kts | 1° |
| 2026-05-07 08:03 | -29.18277 | 153.15081 | 35802 ft | 419 kts | 1° |
| 2026-05-07 08:03 | -29.15506 | 153.16063 | 35431 ft | 415 kts | 1° |
| 2026-05-07 08:04 | -29.12764 | 153.17030 | 35052 ft | 411 kts | 1° |
| 2026-05-07 08:04 | -29.10042 | 153.17988 | 34688 ft | 407 kts | 1° |
| 2026-05-07 08:04 | -29.07343 | 153.18935 | 34314 ft | 404 kts | 1° |
| 2026-05-07 08:04 | -29.04664 | 153.19874 | 33922 ft | 401 kts | 1° |
| 2026-05-07 08:05 | -29.02002 | 153.20806 | 33494 ft | 399 kts | 1° |
| 2026-05-07 08:05 | -28.99367 | 153.21730 | 33113 ft | 395 kts | 1° |
| 2026-05-07 08:05 | -28.96749 | 153.22649 | 32737 ft | 391 kts | 1° |
| 2026-05-07 08:05 | -28.94164 | 153.23556 | 32360 ft | 386 kts | 1° |
| 2026-05-07 08:06 | -28.91606 | 153.24454 | 32013 ft | 383 kts | 1° |
| 2026-05-07 08:06 | -28.89073 | 153.25340 | 31658 ft | 380 kts | 1° |
| 2026-05-07 08:06 | -28.86559 | 153.26219 | 31307 ft | 377 kts | 1° |
| 2026-05-07 08:06 | -28.84065 | 153.27090 | 30967 ft | 373 kts | 1° |
| 2026-05-07 08:07 | -28.81588 | 153.27955 | 30623 ft | 371 kts | 1° |
| 2026-05-07 08:07 | -28.79126 | 153.28814 | 30281 ft | 368 kts | 1° |
| 2026-05-07 08:07 | -28.76685 | 153.29665 | 29917 ft | 366 kts | 1° |
| 2026-05-07 08:07 | -28.74262 | 153.30511 | 29520 ft | 363 kts | 1° |
| 2026-05-07 08:08 | -28.71861 | 153.31349 | 29115 ft | 359 kts | 2° |
| 2026-05-07 08:08 | -28.69491 | 153.32176 | 28803 ft | 354 kts | 2° |
| 2026-05-07 08:08 | -28.67145 | 153.32995 | 28446 ft | 351 kts | 2° |
| 2026-05-07 08:08 | -28.64829 | 153.33802 | 28125 ft | 347 kts | 2° |
| 2026-05-07 08:09 | -28.62499 | 153.34613 | 27767 ft | 344 kts | 2° |
| 2026-05-07 08:09 | -28.60243 | 153.35396 | 27425 ft | 342 kts | 2° |
| 2026-05-07 08:09 | -28.57939 | 153.36196 | 27096 ft | 341 kts | 2° |
| 2026-05-07 08:09 | -28.55673 | 153.36981 | 26770 ft | 342 kts | 3° |
| 2026-05-07 08:10 | -28.53397 | 153.37763 | 26452 ft | 351 kts | 3° |
| 2026-05-07 08:10 | -28.50990 | 153.38589 | 26069 ft | 360 kts | 4° |
| 2026-05-07 08:10 | -28.48627 | 153.39407 | 25705 ft | 359 kts | 4° |
| 2026-05-07 08:10 | -28.46220 | 153.40279 | 25313 ft | 357 kts | 5° |
| 2026-05-07 08:11 | -28.43859 | 153.41112 | 24956 ft | 353 kts | 5° |
| 2026-05-07 08:11 | -28.41547 | 153.41908 | 24637 ft | 351 kts | 5° |
| 2026-05-07 08:11 | -28.39178 | 153.42718 | 24261 ft | 351 kts | 5° |
| 2026-05-07 08:11 | -28.36880 | 153.43507 | 23926 ft | 349 kts | 5° |
| 2026-05-07 08:12 | -28.34552 | 153.44307 | 23540 ft | 349 kts | 5° |
| 2026-05-07 08:12 | -28.32231 | 153.45107 | 23136 ft | 348 kts | 5° |
| 2026-05-07 08:12 | -28.29920 | 153.45907 | 22758 ft | 346 kts | 6° |
| 2026-05-07 08:12 | -28.27624 | 153.46702 | 22388 ft | 344 kts | 6° |
| 2026-05-07 08:13 | -28.25343 | 153.47492 | 22042 ft | 341 kts | 6° |
| 2026-05-07 08:13 | -28.23080 | 153.48274 | 21704 ft | 339 kts | 6° |
| 2026-05-07 08:13 | -28.20829 | 153.49052 | 21331 ft | 337 kts | 6° |
| 2026-05-07 08:13 | -28.18594 | 153.49823 | 21006 ft | 335 kts | 6° |
| 2026-05-07 08:14 | -28.16362 | 153.50277 | 20590 ft | 317 kts | 348° |
| 2026-05-07 08:14 | -28.14193 | 153.49940 | 20017 ft | 314 kts | 340° |
| 2026-05-07 08:14 | -28.12041 | 153.49474 | 19644 ft | 315 kts | 340° |
| 2026-05-07 08:14 | -28.09891 | 153.49004 | 19303 ft | 314 kts | 341° |
| 2026-05-07 08:15 | -28.07748 | 153.48541 | 18978 ft | 313 kts | 341° |
| 2026-05-07 08:15 | -28.05612 | 153.48087 | 18648 ft | 312 kts | 341° |
| 2026-05-07 08:15 | -28.03479 | 153.47637 | 18303 ft | 312 kts | 342° |
| 2026-05-07 08:15 | -28.01350 | 153.47192 | 17937 ft | 311 kts | 342° |
| 2026-05-07 08:16 | -27.99226 | 153.46750 | 17590 ft | 309 kts | 342° |
| 2026-05-07 08:16 | -27.97119 | 153.46314 | 17254 ft | 307 kts | 342° |
| 2026-05-07 08:16 | -27.95023 | 153.45880 | 16927 ft | 305 kts | 342° |
| 2026-05-07 08:16 | -27.92940 | 153.45449 | 16602 ft | 304 kts | 342° |
| 2026-05-07 08:17 | -27.90866 | 153.45020 | 16284 ft | 302 kts | 342° |
| 2026-05-07 08:17 | -27.88807 | 153.44594 | 15967 ft | 300 kts | 342° |
| 2026-05-07 08:17 | -27.86755 | 153.44170 | 15653 ft | 299 kts | 343° |
| 2026-05-07 08:17 | -27.84718 | 153.43749 | 15338 ft | 297 kts | 343° |
| 2026-05-07 08:18 | -27.82683 | 153.43329 | 15013 ft | 296 kts | 343° |
| 2026-05-07 08:18 | -27.80658 | 153.42910 | 14699 ft | 296 kts | 343° |
| 2026-05-07 08:18 | -27.78626 | 153.42491 | 14360 ft | 296 kts | 343° |
| 2026-05-07 08:18 | -27.76602 | 153.42074 | 14055 ft | 296 kts | 343° |
| 2026-05-07 08:19 | -27.74577 | 153.41657 | 13735 ft | 295 kts | 343° |
| 2026-05-07 08:19 | -27.72559 | 153.41241 | 13392 ft | 294 kts | 343° |
| 2026-05-07 08:19 | -27.70550 | 153.40828 | 13073 ft | 293 kts | 343° |
| 2026-05-07 08:19 | -27.68548 | 153.40415 | 12753 ft | 292 kts | 344° |
| 2026-05-07 08:20 | -27.66555 | 153.40005 | 12438 ft | 291 kts | 344° |
| 2026-05-07 08:20 | -27.64570 | 153.39598 | 12127 ft | 289 kts | 344° |
| 2026-05-07 08:20 | -27.62569 | 153.39371 | 11885 ft | 291 kts | 354° |
| 2026-05-07 08:20 | -27.60541 | 153.39444 | 11675 ft | 292 kts | 358° |
| 2026-05-07 08:21 | -27.58507 | 153.39579 | 11441 ft | 294 kts | 358° |
| 2026-05-07 08:21 | -27.56465 | 153.39715 | 11229 ft | 295 kts | 358° |
| 2026-05-07 08:21 | -27.54420 | 153.39839 | 11002 ft | 294 kts | 358° |
| 2026-05-07 08:21 | -27.52384 | 153.39951 | 10767 ft | 293 kts | 357° |
| 2026-05-07 08:22 | -27.50352 | 153.40055 | 10526 ft | 292 kts | 357° |
| 2026-05-07 08:22 | -27.48322 | 153.40154 | 10286 ft | 291 kts | 357° |
| 2026-05-07 08:22 | -27.46310 | 153.40250 | 10062 ft | 287 kts | 357° |
| 2026-05-07 08:22 | -27.44328 | 153.40342 | 9823 ft | 283 kts | 357° |
| 2026-05-07 08:23 | -27.42374 | 153.40433 | 9583 ft | 279 kts | 357° |
| 2026-05-07 08:23 | -27.40454 | 153.40521 | 9338 ft | 274 kts | 357° |
| 2026-05-07 08:23 | -27.38562 | 153.40607 | 9135 ft | 271 kts | 357° |
| 2026-05-07 08:23 | -27.36673 | 153.40693 | 8927 ft | 272 kts | 357° |
| 2026-05-07 08:24 | -27.34776 | 153.40778 | 8682 ft | 274 kts | 357° |
| 2026-05-07 08:24 | -27.32868 | 153.40864 | 8450 ft | 275 kts | 357° |
| 2026-05-07 08:24 | -27.30951 | 153.40951 | 8206 ft | 276 kts | 357° |
| 2026-05-07 08:24 | -27.29025 | 153.41039 | 7957 ft | 276 kts | 357° |
| 2026-05-07 08:25 | -27.27112 | 153.41128 | 7698 ft | 274 kts | 357° |
| 2026-05-07 08:25 | -27.25221 | 153.41215 | 7458 ft | 271 kts | 357° |
| 2026-05-07 08:25 | -27.23348 | 153.41301 | 7212 ft | 268 kts | 356° |
| 2026-05-07 08:25 | -27.21490 | 153.41386 | 6983 ft | 267 kts | 357° |
| 2026-05-07 08:26 | -27.18169 | 153.40255 | 6530 ft | 247 kts | 318° |
| 2026-05-07 08:26 | -27.16827 | 153.39015 | 6293 ft | 246 kts | 315° |
| 2026-05-07 08:26 | -27.15543 | 153.37785 | 6065 ft | 245 kts | 315° |
| 2026-05-07 08:27 | -27.14250 | 153.36541 | 5838 ft | 243 kts | 311° |
| 2026-05-07 08:27 | -27.13360 | 153.35006 | 5596 ft | 232 kts | 284° |
| 2026-05-07 08:27 | -27.13168 | 153.33249 | 5409 ft | 225 kts | 265° |
| 2026-05-07 08:27 | -27.13543 | 153.31548 | 5202 ft | 221 kts | 247° |
| 2026-05-07 08:28 | -27.14197 | 153.30001 | 4999 ft | 218 kts | 245° |
| 2026-05-07 08:28 | -27.14841 | 153.28497 | 4813 ft | 215 kts | 245° |
| 2026-05-07 08:28 | -27.15484 | 153.26989 | 4608 ft | 213 kts | 245° |
| 2026-05-07 08:28 | -27.16240 | 153.25580 | 4389 ft | 212 kts | 225° |
| 2026-05-07 08:29 | -27.17536 | 153.24824 | 4275 ft | 209 kts | 207° |
| 2026-05-07 08:29 | -27.18842 | 153.24143 | 4023 ft | 204 kts | 211° |
| 2026-05-07 08:29 | -27.20092 | 153.23426 | 3754 ft | 199 kts | 212° |
| 2026-05-07 08:29 | -27.21303 | 153.22729 | 3502 ft | 191 kts | 212° |
| 2026-05-07 08:30 | -27.22445 | 153.22073 | 3256 ft | 179 kts | 211° |
| 2026-05-07 08:30 | -27.23535 | 153.21446 | 3014 ft | 170 kts | 212° |
| 2026-05-07 08:30 | -27.24584 | 153.20842 | 2800 ft | 168 kts | 212° |
| 2026-05-07 08:30 | -27.25598 | 153.20260 | 2585 ft | 158 kts | 212° |
| 2026-05-07 08:31 | -27.26538 | 153.19721 | 2370 ft | 146 kts | 211° |
| 2026-05-07 08:31 | -27.27398 | 153.19227 | 2209 ft | 130 kts | 211° |
| 2026-05-07 08:31 | -27.28174 | 153.18782 | 2038 ft | 120 kts | 212° |
| 2026-05-07 08:31 | -27.28912 | 153.18356 | 1868 ft | 119 kts | 212° |
| 2026-05-07 08:32 | -27.29660 | 153.17925 | 1752 ft | 122 kts | 212° |
| 2026-05-07 08:32 | -27.30426 | 153.17484 | 1564 ft | 123 kts | 212° |
| 2026-05-07 08:32 | -27.31197 | 153.17041 | 1383 ft | 125 kts | 212° |
| 2026-05-07 08:32 | -27.31968 | 153.16599 | 1227 ft | 124 kts | 211° |
| 2026-05-07 08:33 | -27.32732 | 153.16161 | 1057 ft | 122 kts | 212° |
| 2026-05-07 08:33 | -27.33504 | 153.15705 | 905 ft | 128 kts | 212° |
| 2026-05-07 08:33 | -27.34316 | 153.15254 | 779 ft | 132 kts | 210° |
| 2026-05-07 08:33 | -27.35147 | 153.14793 | 604 ft | 134 kts | 210° |
| 2026-05-07 08:34 | -27.35995 | 153.14307 | 384 ft | 138 kts | 213° |
| 2026-05-07 08:34 | -27.36824 | 153.13815 | 193 ft | 132 kts | 212° |
| 2026-05-07 08:34 | -27.37627 | 153.13346 | 44 ft | 126 kts | 213° |
| 2026-05-07 08:34 | -27.38321 | 153.12938 | 22 ft | 99 kts | 207° |
| 2026-05-07 08:35 | -27.38795 | 153.12670 | 20 ft | 40 kts | 206° |
| 2026-05-07 08:35 | -27.38936 | 153.12565 | 19 ft | 22 kts | 230° |
| 2026-05-07 08:35 | -27.39021 | 153.12428 | 18 ft | 21 kts | 236° |
| 2026-05-07 08:35 | -27.39078 | 153.12332 | 18 ft | 12 kts | 237° |
| 2026-05-07 08:36 | -27.39124 | 153.12253 | 17 ft | 12 kts | 238° |
| 2026-05-07 08:36 | -27.39126 | 153.12164 | 18 ft | 12 kts | 301° |
| 2026-05-07 08:36 | -27.39051 | 153.12113 | 18 ft | 14 kts | 320° |
| 2026-05-07 08:36 | -27.38999 | 153.12019 | 17 ft | 15 kts | 306° |
| 2026-05-07 08:37 | -27.38937 | 153.12011 | 17 ft | 3 kts | 38° |
| 2026-05-07 08:37 | -27.38911 | 153.12039 | 17 ft | 9 kts | 45° |
| 2026-05-07 08:37 | -27.38873 | 153.12106 | 17 ft | 10 kts | 56° |
| 2026-05-07 08:37 | -27.38823 | 153.12110 | 17 ft | 5 kts | 304° |
| 2026-05-07 08:38 | -27.38815 | 153.12070 | 17 ft | 5 kts | 278° |
| 2026-05-07 08:38 | -27.38810 | 153.12034 | 18 ft | 3 kts | 278° |
| 2026-05-07 08:38 | -27.38808 | 153.12012 | 18 ft | 3 kts | 278° |
| 2026-05-07 08:38 | -27.38807 | 153.12004 | 17 ft | 0 kts | 278° |
| 2026-05-07 09:46 | -27.38807 | 153.12005 | 17 ft | 0 kts | 278° |